createdAt,value
2019-01-28T05:22:41.650Z,67.60
2019-01-28T05:25:58.188Z,67.00
2019-01-28T05:28:56.663Z,67.30
2019-01-28T05:31:51.543Z,66.90
2019-01-28T05:34:47.722Z,67.10
2019-01-28T05:37:43.039Z,67.10
2019-01-28T05:40:38.581Z,67.20
2019-01-28T05:43:33.793Z,67.30
2019-01-28T05:46:28.421Z,67.30
2019-01-28T05:52:50.351Z,67.60
2019-01-28T05:55:51.574Z,67.60
2019-01-28T05:58:46.310Z,67.40
2019-01-28T06:01:40.846Z,66.60
2019-01-28T06:04:36.348Z,67.20
2019-01-28T06:07:36.411Z,67.90
2019-01-28T06:10:42.367Z,67.00
2019-01-28T06:17:38.859Z,67.60
2019-01-28T06:20:38.319Z,67.50
2019-01-28T06:23:41.356Z,67.00
2019-01-28T06:26:36.899Z,67.90
2019-01-28T06:29:35.933Z,66.80
2019-01-28T06:32:32.859Z,66.50
2019-01-28T06:35:29.191Z,66.20
2019-01-28T06:38:23.954Z,66.60
2019-01-28T06:41:18.487Z,66.70
2019-01-28T06:44:12.729Z,66.40
2019-01-28T06:47:08.668Z,66.70
2019-01-28T06:50:03.583Z,66.70
2019-01-28T06:52:58.173Z,66.50
2019-01-28T06:55:52.926Z,65.90
2019-01-28T06:58:47.401Z,66.20
2019-01-28T07:01:45.850Z,65.90
2019-01-28T07:04:38.396Z,65.30
2019-01-28T07:07:54.036Z,66.50
2019-01-28T07:10:52.837Z,66.40
2019-01-28T07:13:50.316Z,66.20
2019-01-28T07:16:56.375Z,66.60
2019-01-28T07:19:53.431Z,66.60
2019-01-28T07:22:53.605Z,66.40
2019-01-28T07:25:49.352Z,66.60
2019-01-28T07:28:58.710Z,66.60
2019-01-28T07:31:53.339Z,66.70
2019-01-28T07:34:51.194Z,66.70
2019-01-28T07:37:47.022Z,66.60
2019-01-28T07:40:43.714Z,66.90
2019-01-28T07:43:41.174Z,66.80
2019-01-28T07:46:51.762Z,67.10
2019-01-28T07:49:46.143Z,66.90
2019-01-28T07:52:43.142Z,66.80
2019-01-28T07:55:39.334Z,66.70
2019-01-28T07:58:37.262Z,66.50
2019-01-28T08:01:41.497Z,66.60
2019-01-28T08:04:37.419Z,66.70
2019-01-28T08:07:36.805Z,66.40
2019-01-28T08:10:52.953Z,66.50
2019-01-28T08:14:02.347Z,66.50
2019-01-28T08:16:57.960Z,66.30
2019-01-28T08:19:53.873Z,66.10
2019-01-28T08:22:48.733Z,66.00
2019-01-28T08:25:43.597Z,65.60
2019-01-28T08:28:38.184Z,65.70
2019-01-28T08:31:40.636Z,66.30
2019-01-28T08:34:54.730Z,65.20
2019-01-28T08:37:54.752Z,65.60
2019-01-28T08:40:50.045Z,65.10
2019-01-28T08:43:52.703Z,65.30
2019-01-28T08:46:48.535Z,65.10
2019-01-28T08:49:44.401Z,65.60
2019-01-28T08:52:39.095Z,64.90
2019-01-28T08:55:34.289Z,64.80
2019-01-28T08:58:28.972Z,64.40
2019-01-28T09:01:23.735Z,64.90
2019-01-28T09:04:19.068Z,63.90
2019-01-28T09:07:14.981Z,63.60
2019-01-28T09:10:10.886Z,63.40
2019-01-28T09:13:05.679Z,63.90
2019-01-28T09:16:15.560Z,63.60
2019-01-28T09:19:10.579Z,63.80
2019-01-28T09:22:08.284Z,63.00
2019-01-28T09:26:51.652Z,62.90
2019-01-28T09:29:05.682Z,63.00
2019-01-28T09:32:01.977Z,62.40
2019-01-28T09:35:00.414Z,62.30
2019-01-28T09:37:56.822Z,62.60
2019-01-28T09:41:35.628Z,62.10
2019-01-28T09:44:33.663Z,62.90
2019-01-28T09:47:38.157Z,62.40
2019-01-28T09:50:35.660Z,62.40
2019-01-28T09:53:32.231Z,62.00
2019-01-28T09:56:27.049Z,61.50
2019-01-28T09:59:31.395Z,62.40
2019-01-28T10:02:25.783Z,62.30
2019-01-28T10:05:22.655Z,61.90
2019-01-28T10:08:22.236Z,61.90
2019-01-28T10:11:18.134Z,61.90
2019-01-28T10:14:23.328Z,62.00
2019-01-28T10:17:21.988Z,62.10
2019-01-28T10:23:16.725Z,62.60
2019-01-28T10:26:12.199Z,62.60
2019-01-28T10:29:07.465Z,62.80
2019-01-28T10:32:02.685Z,62.70
2019-01-28T10:34:58.187Z,62.90
2019-01-28T10:37:53.198Z,63.00
2019-01-28T10:40:48.485Z,63.00
2019-01-28T10:43:57.509Z,63.00
2019-01-28T10:46:52.034Z,63.30
2019-01-28T10:49:53.610Z,63.20
2019-01-28T10:53:11.909Z,63.40
2019-01-28T10:56:24.552Z,63.10
2019-01-28T10:59:25.715Z,63.30
2019-01-28T11:02:22.888Z,62.90
2019-01-28T11:05:17.807Z,62.50
2019-01-28T11:08:15.741Z,63.00
2019-01-28T11:11:12.766Z,62.60
2019-01-28T11:14:10.554Z,62.80
2019-01-28T11:17:06.783Z,63.60
2019-01-28T11:20:06.006Z,64.00
2019-01-28T11:23:02.210Z,63.00
2019-01-28T11:28:48.306Z,63.00
2019-01-28T11:31:46.074Z,63.10
2019-01-28T11:34:43.003Z,63.10
2019-01-28T11:37:37.613Z,63.00
2019-01-28T11:40:50.101Z,62.90
2019-01-28T11:43:47.862Z,63.00
2019-01-28T11:46:46.428Z,63.10
2019-01-28T11:49:43.055Z,63.70
2019-01-28T11:52:38.772Z,63.30
2019-01-28T11:55:34.710Z,63.80
2019-01-28T11:58:30.927Z,63.40
2019-01-28T12:01:30.341Z,64.20
2019-01-28T12:04:29.277Z,64.30
2019-01-28T12:07:25.919Z,63.10
2019-01-28T12:10:22.584Z,63.60
2019-01-28T12:13:18.439Z,64.20
2019-01-28T12:16:13.508Z,64.40
2019-01-28T12:19:13.994Z,64.90
2019-01-28T12:22:05.926Z,65.20
2019-01-28T12:25:00.627Z,65.00
2019-01-28T12:27:55.460Z,65.10
2019-01-28T12:30:50.261Z,65.10
2019-01-28T12:33:44.974Z,65.20
2019-01-28T12:36:39.465Z,65.30
2019-01-28T12:39:42.272Z,66.10
2019-01-28T12:42:47.353Z,66.40
2019-01-28T12:45:56.679Z,65.10
2019-01-28T12:48:52.358Z,65.50
2019-01-28T12:51:47.305Z,66.10
2019-01-28T12:54:41.792Z,65.20
2019-01-28T12:57:36.681Z,66.60
2019-01-28T13:00:43.314Z,65.80
2019-01-28T13:03:38.055Z,65.30
2019-01-28T13:06:32.679Z,66.10
2019-01-28T13:12:14.130Z,65.70
2019-01-28T13:15:10.662Z,65.70
2019-01-28T13:18:05.128Z,65.50
2019-01-28T13:20:59.713Z,64.50
2019-01-28T13:23:56.717Z,64.50
2019-01-28T13:26:51.442Z,64.80
2019-01-28T13:29:45.963Z,65.60
2019-01-28T13:32:40.626Z,65.70
2019-01-28T13:35:35.542Z,65.10
2019-01-28T13:38:30.401Z,65.60
2019-01-28T13:41:25.253Z,65.70
2019-01-28T13:44:20.231Z,66.00
2019-01-28T13:47:14.734Z,65.90
2019-01-28T13:50:12.081Z,65.60
2019-01-28T13:53:05.902Z,66.10
2019-01-28T13:58:51.662Z,66.40
2019-01-28T14:01:46.915Z,66.90
2019-01-28T14:04:41.397Z,65.80
2019-01-28T14:07:36.105Z,65.10
2019-01-28T14:10:30.579Z,64.70
2019-01-28T14:13:29.055Z,64.90
2019-01-28T14:16:23.624Z,65.50
2019-01-28T14:19:16.802Z,66.10
2019-01-28T14:22:11.184Z,65.40
2019-01-28T14:25:05.546Z,65.00
2019-01-28T14:27:58.228Z,64.90
2019-01-28T14:30:53.497Z,66.30
2019-01-28T14:33:47.890Z,66.50
2019-01-28T14:36:42.787Z,66.40
2019-01-28T14:39:37.771Z,66.30
2019-01-28T14:42:33.552Z,65.90
2019-01-28T14:45:28.814Z,65.20
2019-01-28T14:48:23.306Z,65.40
2019-01-28T14:51:17.949Z,65.20
2019-01-28T14:54:13.773Z,65.90
2019-01-28T14:57:09.243Z,66.10
2019-01-28T15:00:04.082Z,65.40
2019-01-28T15:03:00.239Z,65.50
2019-01-28T15:05:55.275Z,65.50
2019-01-28T15:08:50.794Z,65.80
2019-01-28T15:11:43.350Z,65.50
2019-01-28T15:14:38.210Z,65.60
2019-01-28T15:17:32.568Z,65.80
2019-01-28T15:20:28.070Z,65.80
2019-01-28T15:23:24.101Z,65.90
2019-01-28T15:26:18.906Z,66.00
2019-01-28T15:29:13.438Z,66.10
2019-01-28T15:32:12.135Z,66.20
2019-01-28T15:35:07.573Z,66.20
2019-01-28T15:38:02.158Z,65.90
2019-01-28T15:40:57.098Z,65.60
2019-01-28T15:43:51.718Z,65.50
2019-01-28T15:46:46.244Z,66.60
2019-01-28T15:49:42.022Z,66.10
2019-01-28T15:52:36.673Z,65.90
2019-01-28T15:55:39.807Z,66.00
2019-01-28T15:58:34.095Z,66.20
2019-01-28T16:01:30.461Z,66.10
2019-01-28T16:04:25.834Z,66.20
2019-01-28T16:07:20.717Z,66.60
2019-01-28T16:13:10.407Z,66.80
2019-01-28T16:16:05.227Z,66.60
2019-01-28T16:18:58.478Z,67.10
2019-01-28T16:21:53.553Z,66.80
2019-01-28T16:24:49.442Z,67.20
2019-01-28T16:27:44.507Z,67.30
2019-01-28T16:30:42.690Z,67.20
2019-01-28T16:33:37.559Z,67.40
2019-01-28T16:36:32.649Z,66.90
2019-01-28T16:39:28.913Z,66.60
2019-01-28T16:42:23.891Z,67.10
2019-01-28T16:45:19.831Z,67.50
2019-01-28T16:48:16.175Z,67.50
2019-01-28T16:51:11.333Z,67.30
2019-01-28T16:54:05.942Z,67.10
2019-01-28T16:57:00.810Z,66.20
2019-01-28T16:59:57.469Z,66.00
2019-01-28T17:02:52.599Z,66.10
2019-01-28T17:05:47.166Z,66.00
2019-01-28T17:08:41.986Z,66.50
2019-01-28T17:11:36.624Z,66.60
2019-01-28T17:14:32.007Z,66.50
2019-01-28T17:17:28.829Z,66.70
2019-01-28T17:20:25.770Z,66.30
2019-01-28T17:23:20.619Z,66.10
2019-01-28T17:26:15.630Z,66.10
2019-01-28T17:29:12.617Z,66.00
2019-01-28T17:32:07.743Z,66.60
2019-01-28T17:35:02.773Z,66.70
2019-01-28T17:37:58.172Z,66.60
2019-01-28T17:40:53.689Z,66.40
2019-01-28T17:43:48.532Z,66.30
2019-01-28T17:46:43.556Z,65.50
2019-01-28T17:49:41.660Z,65.50
2019-01-28T17:52:36.455Z,65.20
2019-01-28T17:55:31.366Z,64.30
2019-01-28T17:58:26.105Z,65.10
2019-01-28T18:01:23.959Z,64.40
2019-01-28T18:04:20.109Z,64.50
2019-01-28T18:07:15.794Z,64.60
2019-01-28T18:10:14.284Z,65.20
2019-01-28T18:13:09.698Z,64.30
2019-01-28T18:16:07.760Z,64.60
2019-01-28T18:19:02.212Z,64.00
2019-01-28T18:21:56.630Z,64.50
2019-01-28T18:24:51.042Z,64.50
2019-01-28T18:27:45.882Z,64.20
2019-01-28T18:30:43.920Z,63.80
2019-01-28T18:33:38.454Z,64.20
2019-01-28T18:36:34.500Z,63.70
2019-01-28T18:39:28.690Z,63.70
2019-01-28T18:42:23.003Z,64.20
2019-01-28T18:45:18.589Z,64.00
2019-01-28T18:48:13.891Z,63.70
2019-01-28T18:51:09.825Z,63.90
2019-01-28T18:54:05.757Z,62.30
2019-01-28T18:57:00.551Z,62.80
2019-01-28T18:59:56.779Z,62.60
2019-01-28T19:02:51.472Z,63.50
2019-01-28T19:05:53.912Z,64.00
2019-01-28T19:08:59.343Z,62.10
2019-01-28T19:12:24.481Z,62.60
2019-01-28T19:15:55.298Z,63.00
2019-01-28T19:18:56.805Z,62.90
2019-01-28T19:21:56.018Z,62.60
2019-01-28T19:24:50.640Z,62.20
2019-01-28T19:27:44.929Z,62.50
2019-01-28T19:30:39.159Z,63.10
2019-01-28T19:33:33.770Z,63.40
2019-01-28T19:36:28.104Z,63.20
2019-01-28T19:39:22.387Z,63.10
2019-01-28T19:42:16.307Z,62.10
2019-01-28T19:45:13.511Z,62.30
2019-01-28T19:48:08.298Z,62.50
2019-01-28T19:51:02.896Z,63.10
2019-01-28T19:53:57.415Z,62.00
2019-01-28T19:56:51.724Z,61.80
2019-01-28T19:59:46.801Z,61.40
2019-01-28T20:02:44.583Z,61.80
2019-01-28T20:05:39.011Z,62.60
2019-01-28T20:08:35.747Z,62.50
2019-01-28T20:11:30.228Z,62.50
2019-01-28T20:14:24.506Z,62.50
2019-01-28T20:17:20.758Z,61.80
2019-01-28T20:20:16.657Z,61.80
2019-01-28T20:23:11.028Z,61.50
2019-01-28T20:26:07.733Z,61.90
2019-01-28T20:29:01.988Z,61.50
2019-01-28T20:31:58.003Z,62.00
2019-01-28T20:34:52.133Z,62.10
2019-01-28T20:37:46.977Z,61.80
2019-01-28T20:40:41.894Z,61.90
2019-01-28T20:43:38.463Z,61.10
2019-01-28T20:46:37.037Z,61.30
2019-01-28T20:49:31.355Z,61.40
2019-01-28T20:52:25.668Z,62.20
2019-01-28T20:55:20.016Z,62.70
2019-01-28T20:58:17.089Z,62.80
2019-01-28T21:01:11.335Z,63.00
2019-01-28T21:04:07.314Z,63.40
2019-01-28T21:07:01.842Z,62.40
2019-01-28T21:09:55.967Z,62.60
2019-01-28T21:12:50.449Z,62.80
2019-01-28T21:15:44.932Z,62.60
2019-01-28T21:18:39.323Z,62.90
2019-01-28T21:21:41.577Z,62.60
2019-01-28T21:24:30.330Z,62.20
2019-01-28T21:27:24.504Z,62.10
2019-01-28T21:30:22.090Z,61.90
2019-01-28T21:33:16.539Z,62.80
2019-01-28T21:36:26.334Z,62.30
2019-01-28T21:39:23.297Z,62.00
2019-01-28T21:42:17.802Z,63.10
2019-01-28T21:45:14.094Z,62.90
2019-01-28T21:48:09.592Z,63.00
2019-01-28T21:51:04.104Z,63.40
2019-01-28T21:53:59.830Z,61.80
2019-01-28T21:56:54.239Z,60.40
2019-01-28T21:59:48.532Z,60.60
2019-01-28T22:02:43.100Z,60.90
2019-01-28T22:05:37.406Z,60.10
2019-01-28T22:08:31.613Z,60.80
2019-01-28T22:11:25.722Z,62.40
2019-01-28T22:14:20.149Z,62.60
2019-01-28T22:17:14.495Z,62.00
2019-01-28T22:20:09.922Z,59.40
2019-01-28T22:23:04.624Z,59.10
2019-01-28T22:25:58.937Z,58.60
2019-01-28T22:28:53.277Z,58.10
2019-01-28T22:31:47.682Z,57.90
2019-01-28T22:34:47.718Z,57.90
2019-01-28T22:37:37.817Z,59.20
2019-01-28T22:40:31.949Z,58.40
2019-01-28T22:43:26.441Z,57.50
2019-01-28T22:46:20.577Z,57.30
2019-01-28T22:49:17.142Z,57.60
2019-01-28T22:52:11.872Z,58.10
2019-01-28T22:55:07.087Z,58.60
2019-01-28T22:58:01.422Z,59.60
2019-01-28T23:01:16.905Z,58.50
2019-01-28T23:04:11.618Z,58.40
2019-01-28T23:07:05.853Z,57.80
2019-01-28T23:10:00.309Z,57.20
2019-01-28T23:12:54.640Z,58.70
2019-01-28T23:15:49.291Z,57.50
2019-01-28T23:18:43.478Z,60.30
2019-01-28T23:21:38.800Z,58.20
2019-01-28T23:24:33.263Z,58.00
2019-01-28T23:27:28.392Z,57.20
2019-01-28T23:30:23.015Z,57.40
2019-01-28T23:33:17.455Z,57.70
2019-01-28T23:36:12.026Z,57.80
2019-01-28T23:39:07.654Z,58.30
2019-01-28T23:42:02.277Z,58.10
2019-01-28T23:44:58.554Z,58.20
2019-01-28T23:47:53.757Z,58.60
2019-01-28T23:50:48.433Z,57.30
2019-01-28T23:53:42.578Z,58.10
2019-01-28T23:56:37.075Z,57.50
2019-01-28T23:59:31.632Z,57.60
